createdAt,value
2023-01-26T00:00:52.806Z,2.60
2023-01-26T00:02:54.558Z,2.60
2023-01-26T00:04:56.276Z,2.60
2023-01-26T00:06:58.044Z,2.60
2023-01-26T00:09:02.221Z,2.60
2023-01-26T00:11:05.925Z,2.60
2023-01-26T00:13:13.027Z,2.50
2023-01-26T00:15:14.832Z,2.50
2023-01-26T00:17:25.909Z,2.50
2023-01-26T00:19:30.287Z,2.50
2023-01-26T00:21:34.297Z,2.50
2023-01-26T00:23:36.443Z,2.50
2023-01-26T00:25:44.871Z,2.50
2023-01-26T00:27:48.837Z,2.50
2023-01-26T00:29:50.818Z,2.50
2023-01-26T00:31:52.550Z,2.50
2023-01-26T00:33:59.536Z,2.70
2023-01-26T00:36:01.364Z,2.50
2023-01-26T00:38:03.303Z,2.50
2023-01-26T00:40:07.583Z,2.50
2023-01-26T00:42:14.144Z,2.50
2023-01-26T00:44:16.798Z,2.50
2023-01-26T00:46:18.539Z,2.50
2023-01-26T00:48:22.471Z,2.50
2023-01-26T00:50:25.198Z,2.60
2023-01-26T00:52:26.928Z,2.60
2023-01-26T00:54:29.310Z,2.60
2023-01-26T00:56:30.993Z,2.50
2023-01-26T00:58:34.189Z,2.50
2023-01-26T01:00:38.698Z,2.50
2023-01-26T01:02:40.434Z,2.50
2023-01-26T01:04:42.110Z,2.50
2023-01-26T01:06:43.907Z,2.50
2023-01-26T01:08:45.633Z,2.50
2023-01-26T01:10:47.340Z,2.50
2023-01-26T01:12:50.248Z,2.40
2023-01-26T01:14:54.641Z,2.50
2023-01-26T01:16:56.487Z,2.40
2023-01-26T01:18:58.208Z,2.40
2023-01-26T01:20:59.997Z,2.50
2023-01-26T01:23:01.732Z,2.50
2023-01-26T01:25:04.176Z,2.50
2023-01-26T01:27:05.935Z,2.50
2023-01-26T01:29:13.262Z,2.50
2023-01-26T01:31:16.491Z,2.50
2023-01-26T01:33:22.949Z,2.40
2023-01-26T01:35:27.620Z,2.40
2023-01-26T01:37:30.327Z,2.40
2023-01-26T01:39:32.126Z,2.40
2023-01-26T01:41:33.807Z,2.40
2023-01-26T01:43:36.422Z,2.30
2023-01-26T01:45:43.124Z,2.30
2023-01-26T01:47:44.919Z,2.30
2023-01-26T01:49:49.672Z,2.30
2023-01-26T01:51:58.767Z,2.30
2023-01-26T01:54:05.349Z,2.30
2023-01-26T01:56:15.013Z,2.30
2023-01-26T01:58:19.683Z,2.20
2023-01-26T02:00:26.111Z,2.20
2023-01-26T02:02:28.152Z,2.20
2023-01-26T02:04:29.971Z,2.20
2023-01-26T02:06:42.175Z,2.20
2023-01-26T02:08:47.798Z,2.10
2023-01-26T02:10:55.175Z,2.10
2023-01-26T02:12:57.236Z,2.10
2023-01-26T02:15:00.158Z,2.10
2023-01-26T02:17:01.986Z,2.00
2023-01-26T02:19:04.824Z,2.00
2023-01-26T02:21:09.785Z,2.00
2023-01-26T02:23:24.107Z,2.00
2023-01-26T02:25:34.507Z,1.90
2023-01-26T02:27:39.300Z,1.90
2023-01-26T02:29:41.877Z,1.90
2023-01-26T02:31:44.378Z,1.90
2023-01-26T02:33:46.434Z,1.90
2023-01-26T02:35:50.472Z,1.90
2023-01-26T02:37:52.246Z,1.80
2023-01-26T02:39:59.664Z,1.80
2023-01-26T02:42:20.289Z,1.80
2023-01-26T02:44:24.634Z,1.80
2023-01-26T02:46:28.711Z,1.80
2023-01-26T02:48:49.563Z,1.80
2023-01-26T02:50:51.335Z,1.70
2023-01-26T02:52:53.127Z,1.70
2023-01-26T02:55:16.184Z,1.70
2023-01-26T02:57:21.978Z,1.60
2023-01-26T02:59:23.810Z,1.60
2023-01-26T03:01:25.647Z,1.60
2023-01-26T03:03:41.591Z,1.70
2023-01-26T03:05:43.724Z,1.50
2023-01-26T03:07:45.627Z,1.50
2023-01-26T03:09:49.666Z,1.40
2023-01-26T03:11:55.801Z,1.40
2023-01-26T03:13:57.529Z,1.40
2023-01-26T03:16:06.577Z,1.40
2023-01-26T03:18:38.770Z,1.40
2023-01-26T03:20:58.956Z,1.40
2023-01-26T03:23:20.511Z,1.30
2023-01-26T03:25:41.481Z,1.30
2023-01-26T03:27:47.224Z,1.20
2023-01-26T03:29:49.804Z,1.20
2023-01-26T03:31:51.467Z,1.20
2023-01-26T03:33:53.601Z,1.10
2023-01-26T03:35:55.430Z,1.10
2023-01-26T03:37:58.608Z,1.10
2023-01-26T03:40:32.945Z,1.00
2023-01-26T03:42:56.531Z,1.00
2023-01-26T03:45:17.280Z,1.00
2023-01-26T03:47:37.573Z,1.00
2023-01-26T03:49:58.577Z,0.90
2023-01-26T03:52:19.151Z,0.90
2023-01-26T03:54:44.129Z,0.90
2023-01-26T03:56:46.373Z,0.90
2023-01-26T03:58:52.997Z,0.90
2023-01-26T04:00:59.991Z,0.90
2023-01-26T04:03:21.183Z,0.80
2023-01-26T04:05:44.502Z,0.80
2023-01-26T04:08:08.269Z,0.90
2023-01-26T04:10:13.114Z,0.90
2023-01-26T04:12:15.012Z,0.90
2023-01-26T04:14:50.327Z,0.90
2023-01-26T04:17:17.853Z,0.90
2023-01-26T04:19:40.918Z,0.90
2023-01-26T04:21:42.609Z,0.90
2023-01-26T04:23:49.108Z,0.90
2023-01-26T04:25:50.912Z,0.90
2023-01-26T04:27:53.246Z,0.90
2023-01-26T04:29:54.985Z,0.90
2023-01-26T04:31:56.827Z,0.90
2023-01-26T04:34:00.156Z,0.90
2023-01-26T04:36:06.861Z,1.00
2023-01-26T04:38:10.762Z,1.00
2023-01-26T04:40:15.598Z,0.90
2023-01-26T04:42:17.395Z,0.90
2023-01-26T04:44:19.194Z,0.90
2023-01-26T04:46:22.020Z,1.00
2023-01-26T04:48:24.220Z,1.00
2023-01-26T04:50:26.815Z,0.90
2023-01-26T04:52:28.973Z,0.90
2023-01-26T04:54:30.706Z,1.00
2023-01-26T04:56:34.565Z,1.00
2023-01-26T04:58:39.769Z,1.00
2023-01-26T05:00:41.693Z,1.00
2023-01-26T05:02:44.163Z,1.00
2023-01-26T05:04:46.995Z,1.00
2023-01-26T05:06:50.177Z,1.00
2023-01-26T05:08:51.966Z,1.00
2023-01-26T05:10:56.292Z,1.00
2023-01-26T05:13:03.548Z,1.00
2023-01-26T05:15:16.555Z,1.00
2023-01-26T05:17:47.583Z,1.00
2023-01-26T05:20:10.066Z,0.90
2023-01-26T05:22:28.726Z,0.90
2023-01-26T05:24:55.482Z,0.90
2023-01-26T05:27:22.250Z,0.90
2023-01-26T05:29:27.013Z,0.80
2023-01-26T05:31:28.853Z,0.80
2023-01-26T05:33:31.317Z,0.80
2023-01-26T05:35:34.925Z,0.80
2023-01-26T05:37:38.202Z,0.80
2023-01-26T05:39:40.098Z,0.80
2023-01-26T05:41:42.546Z,0.80
2023-01-26T05:44:05.906Z,0.80
2023-01-26T05:46:15.843Z,0.90
2023-01-26T05:48:19.816Z,0.90
2023-01-26T05:50:24.003Z,0.90
2023-01-26T05:52:46.688Z,0.90
2023-01-26T05:54:48.789Z,0.90
2023-01-26T05:56:53.212Z,0.90
2023-01-26T05:58:56.385Z,0.90
2023-01-26T06:00:58.753Z,0.90
2023-01-26T06:03:05.483Z,0.90
2023-01-26T06:05:08.464Z,0.90
2023-01-26T06:07:13.534Z,0.90
2023-01-26T06:09:25.186Z,0.90
2023-01-26T06:11:43.602Z,0.90
2023-01-26T06:14:02.410Z,1.10
2023-01-26T06:16:05.161Z,0.90
2023-01-26T06:18:09.053Z,0.80
2023-01-26T06:20:12.754Z,0.80
2023-01-26T06:22:14.918Z,0.80
2023-01-26T06:24:23.868Z,0.80
2023-01-26T06:26:27.189Z,0.80
2023-01-26T06:28:33.642Z,0.80
2023-01-26T06:30:38.037Z,0.80
2023-01-26T06:32:49.601Z,0.80
2023-01-26T06:34:53.324Z,0.80
2023-01-26T06:36:56.402Z,0.80
2023-01-26T06:39:03.199Z,0.80
2023-01-26T06:41:07.037Z,0.80
2023-01-26T06:43:08.949Z,0.80
2023-01-26T06:45:11.401Z,0.80
2023-01-26T06:47:16.222Z,0.80
2023-01-26T06:49:19.044Z,0.80
2023-01-26T06:51:21.025Z,0.80
2023-01-26T06:53:33.124Z,0.80
2023-01-26T06:55:53.643Z,0.80
2023-01-26T06:58:12.135Z,0.70
2023-01-26T07:00:32.755Z,0.70
2023-01-26T07:02:47.991Z,0.70
2023-01-26T07:04:52.257Z,0.70
2023-01-26T07:06:53.930Z,0.70
2023-01-26T07:08:55.624Z,0.70
2023-01-26T07:10:57.348Z,0.70
2023-01-26T07:12:59.021Z,0.70
2023-01-26T07:15:00.690Z,0.80
2023-01-26T07:17:02.902Z,0.80
2023-01-26T07:19:04.613Z,0.80
2023-01-26T07:21:09.492Z,0.80
2023-01-26T07:23:11.292Z,0.80
2023-01-26T07:25:13.189Z,0.80
2023-01-26T07:27:19.668Z,0.80
2023-01-26T07:29:21.555Z,0.80
2023-01-26T07:31:23.348Z,1.00
2023-01-26T07:33:28.179Z,0.80
2023-01-26T07:35:30.535Z,0.80
2023-01-26T07:37:32.180Z,0.80
2023-01-26T07:39:33.819Z,0.80
2023-01-26T07:41:35.929Z,0.80
2023-01-26T07:43:47.982Z,0.80
2023-01-26T07:45:56.457Z,0.80
2023-01-26T07:47:58.251Z,0.90
2023-01-26T07:49:59.943Z,0.80
2023-01-26T07:52:03.243Z,0.80
2023-01-26T07:54:07.077Z,0.80
2023-01-26T07:56:15.756Z,0.80
2023-01-26T07:58:18.614Z,0.80
2023-01-26T08:00:22.658Z,0.80
2023-01-26T08:02:24.310Z,0.80
2023-01-26T08:04:26.042Z,0.80
2023-01-26T08:06:30.727Z,0.80
2023-01-26T08:08:32.723Z,0.80
2023-01-26T08:10:34.412Z,0.80
2023-01-26T08:12:40.156Z,0.70
2023-01-26T08:14:47.082Z,0.70
2023-01-26T08:16:49.028Z,0.70
2023-01-26T08:18:51.127Z,0.70
2023-01-26T08:20:56.605Z,0.70
2023-01-26T08:23:00.382Z,0.70
2023-01-26T08:25:02.200Z,0.70
2023-01-26T08:27:04.327Z,0.70
2023-01-26T08:29:06.298Z,0.70
2023-01-26T08:31:12.283Z,0.70
2023-01-26T08:33:21.488Z,0.80
2023-01-26T08:35:25.957Z,0.80
2023-01-26T08:37:27.627Z,0.80
2023-01-26T08:39:29.568Z,0.90
2023-01-26T08:41:33.913Z,0.90
2023-01-26T08:43:35.676Z,0.90
2023-01-26T08:45:37.475Z,0.90
2023-01-26T08:47:39.274Z,1.00
2023-01-26T08:49:40.942Z,1.00
2023-01-26T08:51:45.161Z,1.10
2023-01-26T08:53:46.897Z,1.10
2023-01-26T08:55:51.283Z,1.10
2023-01-26T08:57:55.083Z,1.20
2023-01-26T08:59:56.843Z,1.20
2023-01-26T09:02:03.739Z,1.20
2023-01-26T09:04:05.578Z,1.30
2023-01-26T09:06:09.487Z,1.30
2023-01-26T09:08:14.627Z,1.30
2023-01-26T09:10:16.623Z,1.40
2023-01-26T09:12:18.355Z,1.40
2023-01-26T09:14:20.078Z,1.40
2023-01-26T09:16:22.508Z,1.50
2023-01-26T09:18:26.454Z,1.50
2023-01-26T09:20:28.452Z,1.60
2023-01-26T09:22:30.695Z,1.60
2023-01-26T09:24:32.636Z,1.70
2023-01-26T09:26:36.957Z,1.70
2023-01-26T09:28:39.425Z,1.80
2023-01-26T09:30:41.271Z,1.80
2023-01-26T09:32:43.059Z,1.80
2023-01-26T09:34:45.915Z,1.90
2023-01-26T09:36:48.798Z,1.90
2023-01-26T09:38:54.133Z,1.80
2023-01-26T09:41:06.200Z,2.00
2023-01-26T09:43:26.778Z,2.00
2023-01-26T09:45:35.789Z,2.10
2023-01-26T09:47:59.462Z,2.10
2023-01-26T09:50:08.809Z,2.20
2023-01-26T09:52:34.835Z,2.20
2023-01-26T09:54:51.080Z,2.20
2023-01-26T09:56:55.831Z,2.30
2023-01-26T09:59:19.950Z,2.20
2023-01-26T10:01:36.656Z,2.30
2023-01-26T10:03:57.638Z,2.30
2023-01-26T10:06:28.508Z,2.30
2023-01-26T10:08:44.088Z,2.40
2023-01-26T10:10:52.865Z,2.40
2023-01-26T10:12:55.474Z,2.40
2023-01-26T10:15:08.212Z,2.40
2023-01-26T10:17:25.523Z,2.50
2023-01-26T10:19:44.025Z,2.50
2023-01-26T10:21:51.231Z,2.50
2023-01-26T10:23:58.853Z,2.60
2023-01-26T10:26:15.330Z,2.60
2023-01-26T10:28:18.277Z,2.70
2023-01-26T10:30:21.263Z,2.70
2023-01-26T10:32:23.224Z,2.70
2023-01-26T10:34:27.050Z,2.70
2023-01-26T10:36:32.710Z,2.70
2023-01-26T10:38:34.341Z,2.70
2023-01-26T10:40:44.530Z,2.70
2023-01-26T10:42:57.630Z,2.80
2023-01-26T10:45:02.050Z,2.70
2023-01-26T10:47:07.335Z,2.70
2023-01-26T10:49:08.946Z,2.70
2023-01-26T10:51:24.815Z,2.70
2023-01-26T10:53:33.402Z,2.80
2023-01-26T10:55:37.215Z,2.80
2023-01-26T10:57:41.070Z,2.80
2023-01-26T10:59:54.948Z,2.80
2023-01-26T11:02:11.714Z,2.80
2023-01-26T11:04:15.117Z,2.80
2023-01-26T11:06:18.151Z,2.80
2023-01-26T11:08:35.521Z,2.80
2023-01-26T11:10:39.350Z,2.80
2023-01-26T11:12:41.022Z,2.80
2023-01-26T11:15:04.988Z,2.80
2023-01-26T11:17:32.790Z,2.80
2023-01-26T11:20:15.255Z,2.80
2023-01-26T11:22:24.961Z,2.80
2023-01-26T11:24:42.664Z,2.80
2023-01-26T11:27:06.793Z,2.80
2023-01-26T11:29:45.914Z,2.80
2023-01-26T11:32:13.100Z,2.90
2023-01-26T11:34:28.350Z,2.90
2023-01-26T11:36:55.610Z,2.90
2023-01-26T11:39:26.419Z,2.90
2023-01-26T11:42:00.590Z,3.00
2023-01-26T11:44:44.187Z,3.00
2023-01-26T11:47:01.250Z,3.10
2023-01-26T11:49:14.753Z,3.10
2023-01-26T11:51:53.372Z,3.10
2023-01-26T11:54:16.468Z,3.10
2023-01-26T11:56:23.928Z,3.10
2023-01-26T11:58:44.972Z,3.20
2023-01-26T12:00:55.544Z,3.20
2023-01-26T12:03:14.634Z,3.20
2023-01-26T12:05:25.146Z,3.20
2023-01-26T12:07:51.382Z,3.30
2023-01-26T12:09:53.979Z,3.30
2023-01-26T12:12:17.683Z,3.30
2023-01-26T12:14:36.313Z,3.30
2023-01-26T12:17:08.053Z,3.30
2023-01-26T12:19:33.742Z,3.30
2023-01-26T12:21:37.184Z,3.30
2023-01-26T12:23:58.803Z,3.30
2023-01-26T12:26:07.480Z,3.40
2023-01-26T12:28:19.761Z,3.30
2023-01-26T12:30:43.341Z,3.40
2023-01-26T12:32:45.136Z,3.40
2023-01-26T12:34:46.853Z,3.40
2023-01-26T12:37:16.006Z,3.40
2023-01-26T12:39:53.176Z,3.40
2023-01-26T12:42:09.500Z,3.50
2023-01-26T12:44:22.228Z,3.40
2023-01-26T12:46:28.384Z,3.50
2023-01-26T12:49:11.379Z,3.50
2023-01-26T12:51:24.242Z,3.50
2023-01-26T12:53:40.002Z,3.50
2023-01-26T12:55:44.842Z,3.50
2023-01-26T12:58:01.216Z,3.50
2023-01-26T13:00:16.390Z,3.60
2023-01-26T13:02:29.966Z,3.60
2023-01-26T13:04:31.680Z,3.60
2023-01-26T13:06:33.389Z,3.60
2023-01-26T13:08:38.247Z,3.70
2023-01-26T13:10:51.060Z,3.70
2023-01-26T13:13:12.651Z,3.70
2023-01-26T13:15:15.748Z,3.80
2023-01-26T13:17:17.454Z,3.80
2023-01-26T13:19:37.167Z,3.80
2023-01-26T13:21:38.862Z,3.90
2023-01-26T13:23:44.677Z,3.90
2023-01-26T13:26:10.252Z,4.00
2023-01-26T13:28:13.599Z,4.00
2023-01-26T13:30:26.907Z,4.00
2023-01-26T13:32:33.210Z,4.10
2023-01-26T13:34:43.023Z,4.10
2023-01-26T13:36:47.675Z,4.10
2023-01-26T13:39:14.311Z,4.20
2023-01-26T13:41:20.838Z,4.20
2023-01-26T13:43:35.358Z,4.20
2023-01-26T13:45:51.405Z,4.20
2023-01-26T13:47:56.517Z,4.20
2023-01-26T13:49:58.850Z,4.20
2023-01-26T13:52:04.002Z,4.20
2023-01-26T13:54:10.831Z,4.20
2023-01-26T13:56:33.104Z,4.20
2023-01-26T13:58:34.905Z,4.20
2023-01-26T14:00:39.164Z,4.20
2023-01-26T14:02:43.663Z,4.20
2023-01-26T14:04:55.394Z,4.20
2023-01-26T14:07:03.276Z,4.20
2023-01-26T14:09:12.325Z,4.20
2023-01-26T14:11:23.142Z,4.20
2023-01-26T14:13:43.455Z,4.20
2023-01-26T14:15:45.216Z,4.20
2023-01-26T14:17:50.846Z,4.20
2023-01-26T14:19:52.722Z,4.20
2023-01-26T14:21:56.927Z,4.20
2023-01-26T14:23:58.828Z,4.20
2023-01-26T14:26:19.744Z,4.20
2023-01-26T14:28:24.224Z,4.30
2023-01-26T14:30:27.453Z,4.30
2023-01-26T14:32:31.476Z,4.30
2023-01-26T14:34:33.304Z,4.30
2023-01-26T14:36:39.209Z,4.30
2023-01-26T14:38:46.399Z,4.40
2023-01-26T14:40:48.148Z,4.40
2023-01-26T14:42:52.247Z,4.40
2023-01-26T14:44:55.708Z,4.40
2023-01-26T14:47:01.606Z,4.40
2023-01-26T14:49:11.065Z,4.50
2023-01-26T14:51:21.743Z,4.50
2023-01-26T14:53:27.077Z,4.50
2023-01-26T14:55:33.282Z,4.50
2023-01-26T14:57:35.112Z,4.50
2023-01-26T14:59:40.249Z,4.50
2023-01-26T15:01:42.302Z,4.50
2023-01-26T15:03:44.260Z,4.60
2023-01-26T15:05:46.049Z,4.60
2023-01-26T15:08:00.778Z,4.60
2023-01-26T15:10:23.370Z,4.60
2023-01-26T15:12:27.042Z,4.60
2023-01-26T15:14:38.896Z,4.60
2023-01-26T15:16:52.587Z,4.60
2023-01-26T15:19:06.544Z,4.60
2023-01-26T15:21:22.219Z,4.60
2023-01-26T15:23:35.741Z,4.60
2023-01-26T15:25:39.545Z,4.60
2023-01-26T15:27:41.339Z,4.60
2023-01-26T15:29:43.089Z,4.60
2023-01-26T15:31:51.204Z,4.50
2023-01-26T15:33:55.067Z,4.50
2023-01-26T15:35:58.543Z,4.60
2023-01-26T15:38:11.508Z,4.50
2023-01-26T15:40:15.398Z,4.60
2023-01-26T15:42:24.302Z,4.60
2023-01-26T15:44:25.987Z,4.60
2023-01-26T15:46:27.931Z,4.60
2023-01-26T15:48:35.455Z,4.60
2023-01-26T15:50:37.333Z,4.60
2023-01-26T15:52:41.902Z,4.60
2023-01-26T15:54:43.967Z,4.60
2023-01-26T15:56:45.684Z,4.60
2023-01-26T15:58:47.434Z,4.60
2023-01-26T16:00:50.588Z,4.60
2023-01-26T16:02:52.397Z,4.60
2023-01-26T16:04:54.027Z,4.60
2023-01-26T16:06:55.740Z,4.60
2023-01-26T16:08:57.798Z,4.60
2023-01-26T16:10:59.686Z,4.60
2023-01-26T16:13:01.572Z,4.60
2023-01-26T16:15:18.118Z,4.60
2023-01-26T16:17:22.217Z,4.70
2023-01-26T16:19:34.980Z,4.70
2023-01-26T16:21:40.998Z,4.70
2023-01-26T16:23:43.205Z,4.70
2023-01-26T16:25:45.126Z,4.70
2023-01-26T16:27:46.856Z,4.70
2023-01-26T16:29:48.494Z,4.70
2023-01-26T16:31:51.095Z,4.70
2023-01-26T16:33:52.881Z,4.70
2023-01-26T16:35:56.698Z,4.70
2023-01-26T16:38:01.073Z,4.70
2023-01-26T16:40:03.626Z,4.70
2023-01-26T16:42:05.423Z,4.70
2023-01-26T16:44:14.682Z,4.70
2023-01-26T16:46:16.388Z,4.70
2023-01-26T16:48:18.105Z,4.70
2023-01-26T16:50:19.892Z,4.70
2023-01-26T16:52:21.756Z,4.80
2023-01-26T16:54:23.469Z,4.80
2023-01-26T16:56:33.749Z,4.80
2023-01-26T16:58:40.274Z,4.80
2023-01-26T17:00:42.342Z,4.80
2023-01-26T17:02:48.927Z,4.80
2023-01-26T17:04:53.101Z,4.80
2023-01-26T17:06:54.983Z,4.80
2023-01-26T17:08:57.238Z,4.80
2023-01-26T17:11:02.475Z,4.90
2023-01-26T17:13:17.666Z,4.80
2023-01-26T17:15:22.252Z,4.80
2023-01-26T17:17:23.983Z,4.80
2023-01-26T17:19:27.938Z,4.80
2023-01-26T17:21:31.083Z,4.80
2023-01-26T17:23:32.949Z,4.80
2023-01-26T17:25:34.743Z,4.80
2023-01-26T17:27:37.551Z,4.80
2023-01-26T17:29:42.081Z,4.80
2023-01-26T17:31:46.103Z,4.80
2023-01-26T17:33:49.861Z,4.80
2023-01-26T17:36:00.333Z,4.80
2023-01-26T17:38:10.994Z,4.80
2023-01-26T17:40:15.408Z,4.80
2023-01-26T17:42:17.251Z,4.80
2023-01-26T17:44:19.019Z,4.80
2023-01-26T17:46:23.124Z,4.80
2023-01-26T17:48:27.575Z,4.80
2023-01-26T17:50:30.868Z,4.80
2023-01-26T17:52:35.268Z,4.80
2023-01-26T17:54:37.271Z,4.80
2023-01-26T17:56:42.288Z,4.80
2023-01-26T17:58:48.743Z,4.90
2023-01-26T18:00:53.202Z,4.90
2023-01-26T18:02:56.621Z,4.90
2023-01-26T18:05:00.820Z,4.80
2023-01-26T18:07:02.806Z,4.90
2023-01-26T18:09:07.550Z,4.80
2023-01-26T18:11:18.310Z,4.90
2023-01-26T18:13:22.358Z,4.90
2023-01-26T18:15:24.779Z,4.90
2023-01-26T18:17:26.527Z,4.90
2023-01-26T18:19:28.379Z,4.90
2023-01-26T18:21:31.287Z,4.90
2023-01-26T18:23:36.235Z,4.90
2023-01-26T18:25:38.163Z,4.90
2023-01-26T18:27:39.918Z,4.90
2023-01-26T18:29:41.783Z,4.90
2023-01-26T18:31:43.727Z,4.90
2023-01-26T18:33:49.170Z,4.90
2023-01-26T18:35:53.689Z,4.90
2023-01-26T18:37:56.687Z,4.90
2023-01-26T18:39:58.445Z,4.90
2023-01-26T18:42:00.284Z,4.90
2023-01-26T18:44:05.479Z,4.90
2023-01-26T18:46:07.520Z,4.90
2023-01-26T18:48:09.282Z,4.90
2023-01-26T18:50:11.701Z,4.90
2023-01-26T18:52:13.577Z,4.90
2023-01-26T18:54:16.683Z,4.90
2023-01-26T18:56:18.487Z,4.90
2023-01-26T18:58:20.165Z,4.90
2023-01-26T19:00:22.361Z,4.90
2023-01-26T19:02:27.050Z,4.90
2023-01-26T19:04:29.289Z,4.90
2023-01-26T19:06:32.570Z,4.90
2023-01-26T19:08:34.667Z,4.90
2023-01-26T19:10:40.508Z,4.90
2023-01-26T19:12:42.292Z,4.90
2023-01-26T19:14:44.010Z,4.90
2023-01-26T19:16:48.911Z,4.90
2023-01-26T19:18:51.852Z,4.90
2023-01-26T19:20:58.941Z,4.90
2023-01-26T19:23:03.094Z,5.00
2023-01-26T19:25:05.924Z,5.00
2023-01-26T19:27:07.653Z,5.00
2023-01-26T19:29:10.965Z,5.00
2023-01-26T19:31:13.708Z,5.00
2023-01-26T19:33:24.233Z,5.00
2023-01-26T19:35:25.949Z,5.00
2023-01-26T19:37:27.694Z,5.00
2023-01-26T19:39:31.012Z,5.00
2023-01-26T19:41:33.238Z,5.00
2023-01-26T19:43:35.155Z,5.00
2023-01-26T19:45:36.907Z,5.00
2023-01-26T19:47:40.976Z,5.00
2023-01-26T19:49:44.551Z,5.00
2023-01-26T19:51:47.704Z,5.00
2023-01-26T19:53:55.614Z,5.00
2023-01-26T19:55:59.663Z,5.00
2023-01-26T19:58:01.396Z,5.00
2023-01-26T20:00:10.966Z,5.00
2023-01-26T20:02:16.214Z,5.00
2023-01-26T20:04:18.102Z,5.00
2023-01-26T20:06:22.721Z,5.00
2023-01-26T20:08:29.596Z,5.10
2023-01-26T20:10:34.452Z,5.00
2023-01-26T20:12:36.366Z,5.00
2023-01-26T20:14:38.198Z,5.10
2023-01-26T20:16:40.233Z,5.10
2023-01-26T20:18:41.971Z,5.10
2023-01-26T20:20:49.912Z,5.10
2023-01-26T20:22:51.579Z,5.20
2023-01-26T20:24:54.031Z,5.10
2023-01-26T20:26:56.235Z,5.10
2023-01-26T20:28:58.624Z,5.10
2023-01-26T20:31:23.869Z,5.10
2023-01-26T20:33:25.890Z,5.20
2023-01-26T20:35:28.216Z,5.10
2023-01-26T20:37:31.616Z,5.10
2023-01-26T20:39:34.233Z,5.10
2023-01-26T20:41:39.287Z,5.20
2023-01-26T20:43:59.107Z,5.20
2023-01-26T20:46:04.097Z,5.20
2023-01-26T20:48:06.124Z,5.20
2023-01-26T20:50:10.424Z,5.10
2023-01-26T20:52:13.819Z,5.20
2023-01-26T20:54:17.171Z,5.10
2023-01-26T20:56:21.830Z,5.20
2023-01-26T20:58:23.631Z,5.20
2023-01-26T21:00:25.548Z,5.20
2023-01-26T21:02:32.341Z,5.20
2023-01-26T21:04:33.985Z,5.20
2023-01-26T21:06:36.290Z,5.20
2023-01-26T21:08:41.034Z,5.20
2023-01-26T21:10:45.224Z,5.20
2023-01-26T21:12:47.125Z,5.20
2023-01-26T21:14:48.850Z,5.20
2023-01-26T21:16:50.539Z,5.20
2023-01-26T21:18:55.242Z,5.20
2023-01-26T21:21:03.368Z,5.20
2023-01-26T21:23:05.039Z,5.20
2023-01-26T21:25:06.947Z,5.30
2023-01-26T21:27:08.692Z,5.30
2023-01-26T21:29:14.891Z,5.30
2023-01-26T21:31:18.865Z,5.30
2023-01-26T21:33:20.758Z,5.30
2023-01-26T21:35:25.028Z,5.30
2023-01-26T21:37:26.732Z,5.40
2023-01-26T21:39:54.471Z,5.40
2023-01-26T21:41:59.223Z,5.40
2023-01-26T21:44:05.953Z,5.40
2023-01-26T21:46:09.480Z,5.40
2023-01-26T21:48:32.940Z,5.50
2023-01-26T21:50:55.866Z,5.40
2023-01-26T21:52:57.700Z,5.50
2023-01-26T21:54:59.796Z,5.50
2023-01-26T21:57:25.573Z,5.50
2023-01-26T21:59:28.666Z,5.50
2023-01-26T22:01:32.499Z,5.50
2023-01-26T22:03:37.414Z,5.50
2023-01-26T22:05:39.226Z,5.50
2023-01-26T22:07:41.015Z,5.50
2023-01-26T22:09:46.188Z,5.50
2023-01-26T22:11:52.766Z,5.60
2023-01-26T22:14:06.446Z,5.60
2023-01-26T22:16:10.787Z,5.60
2023-01-26T22:18:12.500Z,5.60
2023-01-26T22:20:14.565Z,5.60
2023-01-26T22:22:19.101Z,5.70
2023-01-26T22:24:20.931Z,5.60
2023-01-26T22:26:23.348Z,5.60
2023-01-26T22:28:28.591Z,5.60
2023-01-26T22:30:31.660Z,5.60
2023-01-26T22:32:33.396Z,5.70
2023-01-26T22:34:36.183Z,5.60
2023-01-26T22:36:38.207Z,5.60
2023-01-26T22:38:40.414Z,5.60
2023-01-26T22:40:42.426Z,5.60
2023-01-26T22:42:44.191Z,5.60
2023-01-26T22:44:46.951Z,5.60
2023-01-26T22:46:50.691Z,5.70
2023-01-26T22:48:55.023Z,5.70
2023-01-26T22:50:57.457Z,5.60
2023-01-26T22:53:01.710Z,5.70
2023-01-26T22:55:10.739Z,5.70
2023-01-26T22:57:15.445Z,5.70
2023-01-26T22:59:21.274Z,5.70
2023-01-26T23:01:23.523Z,5.70
2023-01-26T23:03:26.148Z,5.70
2023-01-26T23:05:30.083Z,5.70
2023-01-26T23:07:32.375Z,5.70
2023-01-26T23:09:34.193Z,5.70
2023-01-26T23:11:36.448Z,5.70
2023-01-26T23:13:40.442Z,5.70
2023-01-26T23:15:43.280Z,5.70
2023-01-26T23:17:46.276Z,5.70
2023-01-26T23:19:50.951Z,5.80
2023-01-26T23:21:58.364Z,5.80
2023-01-26T23:24:02.477Z,5.80
2023-01-26T23:26:06.286Z,5.80
2023-01-26T23:28:09.771Z,5.80
2023-01-26T23:30:14.898Z,5.80
2023-01-26T23:32:18.872Z,5.80
2023-01-26T23:34:21.499Z,5.80
2023-01-26T23:36:23.439Z,5.80
2023-01-26T23:38:28.374Z,5.80
2023-01-26T23:40:34.765Z,5.80
2023-01-26T23:42:55.759Z,5.80
2023-01-26T23:44:58.984Z,5.80
2023-01-26T23:47:00.814Z,5.80
2023-01-26T23:49:02.670Z,5.80
2023-01-26T23:51:08.401Z,5.80
2023-01-26T23:53:12.924Z,5.80
2023-01-26T23:55:14.865Z,6.00
2023-01-26T23:57:16.966Z,5.80
2023-01-26T23:59:18.706Z,5.90
